Aviation Digital Data Service (ADDS)

Output produced by METARs form (0034 UTC 19 October 2019)
found at http://www.aviationweather.gov/metar/data/
 
LFLC 190030Z AUTO VRB03KT CAVOK 13/10 Q1010 TEMPO SCT060TCU BKN075
TAF LFLC 182000Z 1821/1921 18007KT CAVOK 
     PROB40 
     TEMPO 1901/1911 -RA SCT060TCU BKN075 
     BECMG 1912/1914 VRB03KT 
     BECMG 1916/1918 BKN050